Uranium City, Canada
Current Conditions -  °F | °C
As of 9:00 PM on Friday 28 Nov 2014 (Local Time) from CYSF Reporting Station
Clear Clear  
Wind Chill: -31°   Ceiling: Unl
Heat Index: -31°   Visibility: 9mi
Dew Point: -38°   Wind: 0mph
Humidity: 68%   Direction: NA
Pressure: 29.96"   Gusts: NA
Location:  59.57°N, 108.61°W
Report Text: CYSF 290300Z AUTO 00000KT 9SM CLR M35/M39 A2996 RMK SLP190
Loading
Personal Weather Stations






























Interactive Weather Map New forecast layout! Learn more

10-Day Weather Forecast

Advertisements
Track Severe Weather on mobile